createdAt,value
2022-08-29T00:00:57.172Z,9.00
2022-08-29T00:01:57.190Z,8.70
2022-08-29T00:02:57.174Z,8.90
2022-08-29T00:03:57.247Z,8.60
2022-08-29T00:04:57.169Z,8.90
2022-08-29T00:05:57.170Z,8.60
2022-08-29T00:06:57.174Z,8.70
2022-08-29T00:07:57.175Z,8.50
2022-08-29T00:08:57.173Z,8.60
2022-08-29T00:09:57.171Z,8.80
2022-08-29T00:10:57.183Z,8.90
2022-08-29T00:11:57.178Z,8.70
2022-08-29T00:12:57.824Z,9.00
2022-08-29T00:13:57.177Z,8.90
2022-08-29T00:14:57.178Z,8.70
2022-08-29T00:15:57.177Z,8.80
2022-08-29T00:16:57.242Z,9.00
2022-08-29T00:17:57.177Z,8.60
2022-08-29T00:18:57.178Z,9.10
2022-08-29T00:19:57.179Z,8.80
2022-08-29T00:20:57.176Z,9.30
2022-08-29T00:21:57.179Z,9.30
2022-08-29T00:22:58.543Z,9.10
2022-08-29T00:23:57.185Z,9.00
2022-08-29T00:24:57.183Z,8.90
2022-08-29T00:25:57.188Z,9.00
2022-08-29T00:26:57.189Z,9.50
2022-08-29T00:27:57.186Z,9.30
2022-08-29T00:28:57.183Z,9.80
2022-08-29T00:29:57.181Z,9.40
2022-08-29T00:30:57.186Z,9.10
2022-08-29T00:31:57.250Z,9.30
2022-08-29T00:32:57.191Z,9.30
2022-08-29T00:33:57.187Z,9.40
2022-08-29T00:34:57.187Z,9.10
2022-08-29T00:35:57.188Z,9.20
2022-08-29T00:36:57.187Z,9.40
2022-08-29T00:37:57.192Z,9.30
2022-08-29T00:38:57.188Z,9.20
2022-08-29T00:39:57.234Z,9.30
2022-08-29T00:40:57.195Z,9.50
2022-08-29T00:41:57.190Z,9.40
2022-08-29T00:42:57.192Z,9.50
2022-08-29T00:43:57.212Z,9.40
2022-08-29T00:44:57.191Z,9.80
2022-08-29T00:45:57.244Z,9.50
2022-08-29T00:46:57.205Z,9.70
2022-08-29T00:47:57.198Z,9.60
2022-08-29T00:48:57.197Z,9.80
2022-08-29T00:49:57.208Z,9.80
2022-08-29T00:50:57.194Z,9.70
2022-08-29T00:51:57.199Z,9.80
2022-08-29T00:52:57.207Z,9.90
2022-08-29T00:53:57.198Z,9.30
2022-08-29T00:54:57.203Z,9.40
2022-08-29T00:55:57.199Z,9.40
2022-08-29T00:56:57.199Z,9.70
2022-08-29T00:57:57.197Z,9.70
2022-08-29T00:58:57.202Z,9.60
2022-08-29T00:59:57.205Z,9.50
2022-08-29T01:00:57.268Z,9.70
2022-08-29T01:01:57.279Z,9.70
2022-08-29T01:02:57.205Z,9.80
2022-08-29T01:03:57.204Z,9.30
2022-08-29T01:04:57.205Z,9.60
2022-08-29T01:05:57.204Z,9.70
2022-08-29T01:06:57.207Z,9.50
2022-08-29T01:07:57.211Z,9.80
2022-08-29T01:08:58.373Z,9.70
2022-08-29T01:09:57.208Z,9.50
2022-08-29T01:10:57.215Z,9.20
2022-08-29T01:11:57.213Z,9.10
2022-08-29T01:12:57.208Z,9.00
2022-08-29T01:13:57.205Z,9.60
2022-08-29T01:14:57.212Z,9.90
2022-08-29T01:15:57.282Z,9.70
2022-08-29T01:16:57.207Z,9.90
2022-08-29T01:17:57.214Z,9.40
2022-08-29T01:18:57.212Z,9.30
2022-08-29T01:19:57.213Z,9.40
2022-08-29T01:20:57.214Z,9.30
2022-08-29T01:21:57.219Z,9.40
2022-08-29T01:22:57.220Z,9.50
2022-08-29T01:23:57.213Z,9.50
2022-08-29T01:24:57.219Z,9.40
2022-08-29T01:25:57.214Z,9.00
2022-08-29T01:26:57.221Z,9.40
2022-08-29T01:27:57.219Z,9.20
2022-08-29T01:28:57.217Z,9.10
2022-08-29T01:29:57.221Z,9.40
2022-08-29T01:30:57.221Z,9.50
2022-08-29T01:31:58.161Z,9.00
2022-08-29T01:32:57.224Z,9.60
2022-08-29T01:33:57.223Z,9.10
2022-08-29T01:34:57.223Z,9.30
2022-08-29T01:35:57.223Z,9.50
2022-08-29T01:36:57.224Z,9.60
2022-08-29T01:37:57.220Z,9.50
2022-08-29T01:38:57.219Z,9.50
2022-08-29T01:39:57.296Z,8.90
2022-08-29T01:40:57.226Z,9.40
2022-08-29T01:41:57.231Z,9.60
2022-08-29T01:42:57.230Z,9.60
2022-08-29T01:43:57.223Z,9.30
2022-08-29T01:44:57.226Z,9.00
2022-08-29T01:45:57.311Z,9.30
2022-08-29T01:47:01.746Z,9.00
2022-08-29T01:47:59.069Z,9.20
2022-08-29T01:48:57.227Z,9.50
2022-08-29T01:49:57.229Z,9.30
2022-08-29T01:50:57.235Z,9.00
2022-08-29T01:51:57.235Z,8.80
2022-08-29T01:52:57.232Z,9.50
2022-08-29T01:53:57.234Z,9.30
2022-08-29T01:54:57.231Z,8.90
2022-08-29T01:55:57.236Z,9.10
2022-08-29T01:56:57.231Z,8.90
2022-08-29T01:57:57.237Z,8.60
2022-08-29T01:58:57.233Z,8.90
2022-08-29T01:59:57.233Z,8.80
2022-08-29T02:00:57.266Z,8.80
2022-08-29T02:01:57.330Z,8.60
2022-08-29T02:02:57.239Z,8.70
2022-08-29T02:03:57.237Z,8.90
2022-08-29T02:04:57.240Z,8.40
2022-08-29T02:05:57.236Z,8.40
2022-08-29T02:06:57.237Z,8.40
2022-08-29T02:07:57.237Z,8.30
2022-08-29T02:08:57.237Z,8.80
2022-08-29T02:09:57.240Z,8.60
2022-08-29T02:10:57.241Z,8.30
2022-08-29T02:11:57.240Z,8.10
2022-08-29T02:12:57.240Z,8.60
2022-08-29T02:13:57.238Z,9.30
2022-08-29T02:14:57.241Z,8.90
2022-08-29T02:15:57.278Z,8.80
2022-08-29T02:16:57.242Z,8.10
2022-08-29T02:17:57.242Z,8.70
2022-08-29T02:18:57.242Z,8.90
2022-08-29T02:19:57.248Z,8.40
2022-08-29T02:20:57.244Z,8.10
2022-08-29T02:21:57.245Z,8.50
2022-08-29T02:22:57.247Z,8.90
2022-08-29T02:23:57.245Z,8.60
2022-08-29T02:24:57.248Z,8.70
2022-08-29T02:25:57.249Z,8.60
2022-08-29T02:26:57.250Z,8.80
2022-08-29T02:27:57.248Z,8.50
2022-08-29T02:28:57.247Z,8.20
2022-08-29T02:29:57.250Z,8.50
2022-08-29T02:30:57.473Z,8.80
2022-08-29T02:31:57.251Z,8.40
2022-08-29T02:32:57.251Z,8.20
2022-08-29T02:33:57.251Z,8.70
2022-08-29T02:34:57.248Z,8.20
2022-08-29T02:35:57.253Z,8.30
2022-08-29T02:36:57.252Z,8.70
2022-08-29T02:37:57.250Z,8.20
2022-08-29T02:38:57.254Z,8.70
2022-08-29T02:39:57.308Z,8.90
2022-08-29T02:40:57.252Z,8.40
2022-08-29T02:41:57.255Z,8.20
2022-08-29T02:42:57.257Z,8.30
2022-08-29T02:43:57.255Z,8.60
2022-08-29T02:44:57.254Z,8.50
2022-08-29T02:45:57.253Z,8.60
2022-08-29T02:46:57.357Z,8.50
2022-08-29T02:47:57.262Z,8.20
2022-08-29T02:49:01.117Z,8.70
2022-08-29T02:49:57.266Z,8.90
2022-08-29T02:50:57.263Z,8.90
2022-08-29T02:51:57.257Z,8.90
2022-08-29T02:52:57.263Z,8.70
2022-08-29T02:53:57.258Z,8.90
2022-08-29T02:54:57.262Z,8.40
2022-08-29T02:55:57.264Z,8.60
2022-08-29T02:56:57.267Z,8.60
2022-08-29T02:57:57.261Z,8.30
2022-08-29T02:58:57.261Z,8.30
2022-08-29T02:59:57.262Z,8.90
2022-08-29T03:00:57.334Z,8.70
2022-08-29T03:01:57.357Z,8.40
2022-08-29T03:02:57.266Z,8.30
2022-08-29T03:03:57.265Z,8.50
2022-08-29T03:04:57.268Z,8.50
2022-08-29T03:05:57.264Z,8.50
2022-08-29T03:06:57.267Z,8.40
2022-08-29T03:07:57.264Z,8.20
2022-08-29T03:08:57.268Z,8.60
2022-08-29T03:09:57.262Z,8.50
2022-08-29T03:10:57.267Z,8.70
2022-08-29T03:11:57.269Z,8.30
2022-08-29T03:12:57.267Z,8.90
2022-08-29T03:13:57.826Z,9.00
2022-08-29T03:14:57.272Z,8.60
2022-08-29T03:15:57.388Z,8.40
2022-08-29T03:16:57.273Z,8.60
2022-08-29T03:17:57.268Z,8.90
2022-08-29T03:18:57.273Z,8.40
2022-08-29T03:19:57.270Z,8.80
2022-08-29T03:20:57.276Z,8.60
2022-08-29T03:21:57.273Z,10.00
2022-08-29T03:22:57.278Z,8.60
2022-08-29T03:23:57.332Z,8.50
2022-08-29T03:24:57.270Z,8.50
2022-08-29T03:25:57.273Z,9.00
2022-08-29T03:26:58.891Z,9.20
2022-08-29T03:27:57.274Z,8.60
2022-08-29T03:28:57.277Z,8.30
2022-08-29T03:29:57.272Z,8.80
2022-08-29T03:30:57.347Z,9.10
2022-08-29T03:31:57.275Z,8.70
2022-08-29T03:32:57.274Z,8.70
2022-08-29T03:33:57.281Z,9.10
2022-08-29T03:34:57.279Z,9.00
2022-08-29T03:35:57.309Z,8.80
2022-08-29T03:36:57.279Z,9.10
2022-08-29T03:37:57.281Z,8.10
2022-08-29T03:38:57.287Z,8.50
2022-08-29T03:39:57.355Z,8.60
2022-08-29T03:40:57.607Z,8.40
2022-08-29T03:41:57.282Z,8.50
2022-08-29T03:42:57.285Z,8.10
2022-08-29T03:43:57.284Z,8.20
2022-08-29T03:44:57.282Z,8.30
2022-08-29T03:45:57.281Z,8.30
2022-08-29T03:46:57.372Z,8.40
2022-08-29T03:47:57.285Z,8.30
2022-08-29T03:48:57.286Z,8.80
2022-08-29T03:49:57.281Z,8.60
2022-08-29T03:50:57.283Z,8.60
2022-08-29T03:51:57.283Z,8.30
2022-08-29T03:52:57.285Z,8.70
2022-08-29T03:53:57.288Z,8.40
2022-08-29T03:54:57.283Z,8.10
2022-08-29T03:55:57.284Z,8.50
2022-08-29T03:56:57.283Z,8.20
2022-08-29T03:57:57.288Z,8.80
2022-08-29T03:58:57.284Z,8.40
2022-08-29T03:59:57.289Z,8.70
2022-08-29T04:00:57.285Z,9.10
2022-08-29T04:01:57.341Z,8.80
2022-08-29T04:02:57.347Z,8.20
2022-08-29T04:03:57.294Z,8.60
2022-08-29T04:04:57.290Z,8.20
2022-08-29T04:05:57.289Z,8.90
2022-08-29T04:06:57.296Z,8.90
2022-08-29T04:07:57.291Z,8.40
2022-08-29T04:08:57.290Z,8.90
2022-08-29T04:09:57.289Z,8.90
2022-08-29T04:10:57.291Z,8.70
2022-08-29T04:11:57.293Z,8.60
2022-08-29T04:12:57.293Z,8.90
2022-08-29T04:13:57.290Z,9.10
2022-08-29T04:14:57.292Z,8.90
2022-08-29T04:15:57.332Z,9.00
2022-08-29T04:16:57.291Z,8.60
2022-08-29T04:17:57.292Z,8.80
2022-08-29T04:18:57.292Z,9.00
2022-08-29T04:19:57.296Z,8.90
2022-08-29T04:20:57.289Z,9.20
2022-08-29T04:21:57.295Z,9.20
2022-08-29T04:22:57.292Z,8.90
2022-08-29T04:23:57.296Z,8.90
2022-08-29T04:24:57.294Z,9.10
2022-08-29T04:26:12.717Z,9.30
2022-08-29T04:26:57.297Z,9.10
2022-08-29T04:27:57.301Z,9.10
2022-08-29T04:28:57.295Z,9.10
2022-08-29T04:29:57.300Z,8.90
2022-08-29T04:30:57.313Z,9.30
2022-08-29T04:31:57.300Z,8.90
2022-08-29T04:32:57.296Z,9.10
2022-08-29T04:33:57.297Z,9.10
2022-08-29T04:34:57.298Z,9.10
2022-08-29T04:35:57.298Z,8.80
2022-08-29T04:36:57.296Z,9.30
2022-08-29T04:37:57.297Z,8.90
2022-08-29T04:38:57.302Z,9.30
2022-08-29T04:39:57.346Z,8.40
2022-08-29T04:40:57.299Z,8.80
2022-08-29T04:41:57.301Z,8.70
2022-08-29T04:42:57.299Z,8.70
2022-08-29T04:43:57.303Z,9.30
2022-08-29T04:44:57.301Z,8.80
2022-08-29T04:45:57.341Z,9.10
2022-08-29T04:46:57.362Z,9.50
2022-08-29T04:47:59.772Z,9.10
2022-08-29T04:49:00.655Z,9.20
2022-08-29T04:49:57.301Z,9.90
2022-08-29T04:50:57.302Z,8.90
2022-08-29T04:51:57.304Z,8.80
2022-08-29T04:52:57.300Z,8.70
2022-08-29T04:53:57.308Z,9.00
2022-08-29T04:54:57.305Z,9.20
2022-08-29T04:55:57.306Z,9.20
2022-08-29T04:56:57.320Z,9.10
2022-08-29T04:57:57.301Z,9.20
2022-08-29T04:58:57.310Z,9.40
2022-08-29T04:59:57.305Z,9.30
2022-08-29T05:00:57.304Z,9.20
2022-08-29T05:01:57.363Z,9.20
2022-08-29T05:02:57.379Z,9.10
2022-08-29T05:03:57.310Z,8.90
2022-08-29T05:04:57.302Z,8.90
2022-08-29T05:05:57.308Z,8.80
2022-08-29T05:06:57.307Z,8.70
2022-08-29T05:07:57.307Z,9.00
2022-08-29T05:08:59.773Z,9.60
2022-08-29T05:09:57.313Z,9.00
2022-08-29T05:10:57.310Z,9.10
2022-08-29T05:11:57.310Z,8.60
2022-08-29T05:12:57.312Z,8.80
2022-08-29T05:13:57.315Z,9.40
2022-08-29T05:14:57.310Z,8.60
2022-08-29T05:15:57.360Z,8.90
2022-08-29T05:16:57.311Z,8.90
2022-08-29T05:17:57.312Z,8.70
2022-08-29T05:18:57.315Z,8.80
2022-08-29T05:19:57.313Z,8.60
2022-08-29T05:20:57.316Z,8.50
2022-08-29T05:21:57.313Z,8.60
2022-08-29T05:22:57.313Z,8.80
2022-08-29T05:23:57.315Z,9.90
2022-08-29T05:24:57.308Z,9.60
2022-08-29T05:25:57.318Z,9.50
2022-08-29T05:26:57.316Z,9.10
2022-08-29T05:27:57.316Z,8.50
2022-08-29T05:28:57.319Z,9.00
2022-08-29T05:29:57.319Z,8.80
2022-08-29T05:30:57.359Z,8.60
2022-08-29T05:31:57.317Z,8.50
2022-08-29T05:32:57.318Z,8.10
2022-08-29T05:33:57.316Z,8.80
2022-08-29T05:34:57.318Z,9.10
2022-08-29T05:35:57.317Z,9.10
2022-08-29T05:36:57.322Z,9.20
2022-08-29T05:37:57.324Z,8.90
2022-08-29T05:38:57.316Z,8.50
2022-08-29T05:39:57.347Z,8.70
2022-08-29T05:40:57.324Z,9.00
2022-08-29T05:41:57.332Z,9.10
2022-08-29T05:42:57.322Z,8.90
2022-08-29T05:43:57.324Z,9.50
2022-08-29T05:44:57.330Z,9.30
2022-08-29T05:45:57.388Z,9.00
2022-08-29T05:46:57.324Z,9.10
2022-08-29T05:47:57.326Z,9.00
2022-08-29T05:48:57.327Z,8.80
2022-08-29T05:49:57.323Z,8.90
2022-08-29T05:50:57.330Z,9.10
2022-08-29T05:51:57.327Z,9.10
2022-08-29T05:52:57.324Z,8.70
2022-08-29T05:53:57.331Z,9.20
2022-08-29T05:54:57.329Z,9.10
2022-08-29T05:55:57.327Z,9.20
2022-08-29T05:56:57.330Z,8.80
2022-08-29T05:57:57.334Z,8.70
2022-08-29T05:58:57.332Z,8.90
2022-08-29T05:59:57.329Z,9.00
2022-08-29T06:00:57.330Z,8.60
2022-08-29T06:01:57.335Z,8.70
2022-08-29T06:02:57.444Z,9.10
2022-08-29T06:03:57.594Z,8.70
2022-08-29T06:04:57.334Z,8.80
2022-08-29T06:05:57.339Z,8.70
2022-08-29T06:06:57.336Z,9.10
2022-08-29T06:07:57.341Z,9.00
2022-08-29T06:08:57.341Z,8.70
2022-08-29T06:10:03.560Z,8.30
2022-08-29T06:10:57.339Z,8.20
2022-08-29T06:11:57.340Z,8.90
2022-08-29T06:12:57.338Z,8.60
2022-08-29T06:13:57.341Z,8.60
2022-08-29T06:14:57.342Z,8.70
2022-08-29T06:15:57.455Z,8.60
2022-08-29T06:16:57.344Z,8.80
2022-08-29T06:17:57.343Z,8.20
2022-08-29T06:18:57.348Z,8.70
2022-08-29T06:19:57.345Z,8.70
2022-08-29T06:20:57.345Z,8.30
2022-08-29T06:21:57.347Z,8.20
2022-08-29T06:22:57.346Z,8.50
2022-08-29T06:23:57.357Z,8.40
2022-08-29T06:24:57.656Z,8.20
2022-08-29T06:25:57.351Z,8.40
2022-08-29T06:26:57.360Z,7.70
2022-08-29T06:27:57.351Z,7.90
2022-08-29T06:28:57.349Z,7.90
2022-08-29T06:30:01.322Z,7.80
2022-08-29T06:30:57.409Z,7.80
2022-08-29T06:31:57.354Z,7.90
2022-08-29T06:32:57.357Z,7.80
2022-08-29T06:33:57.362Z,7.70
2022-08-29T06:34:57.358Z,7.70
2022-08-29T06:35:57.363Z,7.60
2022-08-29T06:36:57.359Z,7.50
2022-08-29T06:37:57.365Z,7.70
2022-08-29T06:38:57.357Z,7.70
2022-08-29T06:39:57.383Z,8.30
2022-08-29T06:40:57.363Z,8.40
2022-08-29T06:41:57.363Z,8.20
2022-08-29T06:42:57.366Z,8.00
2022-08-29T06:43:57.364Z,8.30
2022-08-29T06:44:57.366Z,8.10
2022-08-29T06:45:57.421Z,8.10
2022-08-29T06:46:57.373Z,7.90
2022-08-29T06:47:57.367Z,7.90
2022-08-29T06:48:57.374Z,8.00
2022-08-29T06:49:57.368Z,8.20
2022-08-29T06:50:57.382Z,7.90
2022-08-29T06:51:58.582Z,7.70
2022-08-29T06:53:05.421Z,7.90
2022-08-29T06:53:57.385Z,7.70
2022-08-29T06:54:57.376Z,7.70
2022-08-29T06:55:57.380Z,8.10
2022-08-29T06:56:57.375Z,8.10
2022-08-29T06:57:57.379Z,7.60
2022-08-29T06:58:57.376Z,8.40
2022-08-29T06:59:57.379Z,8.40
2022-08-29T07:00:57.378Z,8.30
2022-08-29T07:01:57.467Z,8.20
2022-08-29T07:02:57.460Z,8.20
2022-08-29T07:03:57.381Z,7.80
2022-08-29T07:04:57.384Z,8.10
2022-08-29T07:05:57.384Z,8.10
2022-08-29T07:06:57.385Z,8.10
2022-08-29T07:07:57.397Z,8.20
2022-08-29T07:08:57.389Z,7.80
2022-08-29T07:09:57.392Z,8.00
2022-08-29T07:10:57.390Z,8.50
2022-08-29T07:11:57.394Z,8.60
2022-08-29T07:12:57.395Z,8.10
2022-08-29T07:13:57.393Z,8.50
2022-08-29T07:14:57.399Z,8.60
2022-08-29T07:15:57.462Z,8.40
2022-08-29T07:16:57.395Z,8.30
2022-08-29T07:18:00.000Z,8.70
2022-08-29T07:18:57.405Z,8.60
2022-08-29T07:19:57.404Z,8.60
2022-08-29T07:20:57.401Z,8.30
2022-08-29T07:21:58.145Z,8.80
2022-08-29T07:22:57.405Z,8.60
2022-08-29T07:23:57.416Z,8.60
2022-08-29T07:24:57.405Z,8.60
2022-08-29T07:25:57.410Z,8.60
2022-08-29T07:26:57.407Z,8.70
2022-08-29T07:27:57.408Z,8.20
2022-08-29T07:28:57.404Z,8.60
2022-08-29T07:29:57.412Z,8.80
2022-08-29T07:30:57.430Z,8.60
2022-08-29T07:31:57.414Z,8.70
2022-08-29T07:32:57.413Z,8.60
2022-08-29T07:34:02.701Z,8.90
2022-08-29T07:34:57.417Z,8.70
2022-08-29T07:35:57.422Z,8.90
2022-08-29T07:36:57.413Z,8.80
2022-08-29T07:37:57.423Z,8.70
2022-08-29T07:38:57.418Z,8.60
2022-08-29T07:39:57.476Z,8.50
2022-08-29T07:40:57.423Z,8.60
2022-08-29T07:41:57.432Z,8.90
2022-08-29T07:42:57.439Z,8.60
2022-08-29T07:43:57.424Z,8.90
2022-08-29T07:44:57.427Z,8.80
2022-08-29T07:45:57.447Z,8.50
2022-08-29T07:46:57.432Z,8.60
2022-08-29T07:47:57.434Z,8.40
2022-08-29T07:48:57.434Z,8.80
2022-08-29T07:49:57.433Z,8.70
2022-08-29T07:50:57.437Z,8.70
2022-08-29T07:51:57.434Z,8.90
2022-08-29T07:52:57.436Z,8.90
2022-08-29T07:53:57.440Z,8.90
2022-08-29T07:54:57.438Z,8.80
2022-08-29T07:55:57.441Z,8.90
2022-08-29T07:56:57.441Z,9.00
2022-08-29T07:57:57.441Z,8.80
2022-08-29T07:58:57.441Z,8.70
2022-08-29T07:59:57.446Z,9.00
2022-08-29T08:00:57.446Z,8.90
2022-08-29T08:01:57.515Z,9.00
2022-08-29T08:02:57.522Z,9.10
2022-08-29T08:03:57.469Z,9.20
2022-08-29T08:04:57.453Z,9.30
2022-08-29T08:05:57.449Z,9.30
2022-08-29T08:06:57.453Z,9.10
2022-08-29T08:07:59.238Z,8.90
2022-08-29T08:08:57.457Z,9.10
2022-08-29T08:09:57.458Z,9.10
2022-08-29T08:10:57.460Z,8.40
2022-08-29T08:11:57.464Z,8.70
2022-08-29T08:12:57.459Z,8.50
2022-08-29T08:13:57.465Z,8.80
2022-08-29T08:14:57.465Z,8.30
2022-08-29T08:15:57.463Z,8.10
2022-08-29T08:16:57.501Z,8.10
2022-08-29T08:17:57.470Z,8.10
2022-08-29T08:18:57.466Z,8.60
2022-08-29T08:19:57.471Z,8.50
2022-08-29T08:20:57.475Z,8.70
2022-08-29T08:21:57.474Z,8.20
2022-08-29T08:22:57.475Z,8.20
2022-08-29T08:23:57.475Z,8.20
2022-08-29T08:24:57.474Z,8.30
2022-08-29T08:25:57.482Z,8.40
2022-08-29T08:26:57.477Z,8.40
2022-08-29T08:27:57.483Z,8.20
2022-08-29T08:28:57.481Z,8.60
2022-08-29T08:29:59.878Z,8.30
2022-08-29T08:30:58.151Z,8.20
2022-08-29T08:31:57.484Z,8.40
2022-08-29T08:32:57.489Z,8.10
2022-08-29T08:33:57.730Z,8.30
2022-08-29T08:34:57.490Z,7.80
2022-08-29T08:35:57.492Z,7.70
2022-08-29T08:36:57.494Z,8.00
2022-08-29T08:37:57.490Z,8.20
2022-08-29T08:38:57.495Z,8.40
2022-08-29T08:39:57.585Z,8.40
2022-08-29T08:40:57.502Z,8.80
2022-08-29T08:41:57.497Z,8.60
2022-08-29T08:42:57.500Z,8.70
2022-08-29T08:43:57.499Z,8.40
2022-08-29T08:44:57.514Z,8.70
2022-08-29T08:45:57.555Z,8.60
2022-08-29T08:46:57.503Z,8.50
2022-08-29T08:47:57.510Z,8.20
2022-08-29T08:48:57.509Z,8.90
2022-08-29T08:49:57.512Z,9.30
2022-08-29T08:50:57.510Z,9.10
2022-08-29T08:51:57.519Z,9.00
2022-08-29T08:52:57.519Z,8.30
2022-08-29T08:53:57.520Z,8.00
2022-08-29T08:54:57.516Z,7.90
2022-08-29T08:55:57.518Z,8.20
2022-08-29T08:57:01.871Z,8.60
2022-08-29T08:57:57.528Z,8.20
2022-08-29T08:58:57.527Z,8.10
2022-08-29T08:59:57.528Z,9.10
2022-08-29T09:00:57.586Z,9.00
2022-08-29T09:01:57.576Z,9.00
2022-08-29T09:02:57.531Z,8.90
2022-08-29T09:03:57.538Z,9.00
2022-08-29T09:04:57.532Z,9.00
2022-08-29T09:05:57.534Z,9.20
2022-08-29T09:06:57.540Z,9.10
2022-08-29T09:07:57.535Z,8.90
2022-08-29T09:08:57.537Z,9.00
2022-08-29T09:09:57.543Z,9.00
2022-08-29T09:10:59.119Z,9.20
2022-08-29T09:11:57.547Z,9.00
2022-08-29T09:12:57.551Z,8.90
2022-08-29T09:13:57.552Z,8.90
2022-08-29T09:14:57.553Z,9.10
2022-08-29T09:15:57.549Z,9.00
2022-08-29T09:16:57.613Z,8.90
2022-08-29T09:17:57.555Z,8.90
2022-08-29T09:18:57.560Z,8.90
2022-08-29T09:19:57.557Z,8.60
2022-08-29T09:20:57.562Z,8.80
2022-08-29T09:21:57.556Z,9.10
2022-08-29T09:22:57.561Z,9.00
2022-08-29T09:23:57.570Z,9.00
2022-08-29T09:24:57.564Z,9.10
2022-08-29T09:25:57.567Z,8.90
2022-08-29T09:26:57.570Z,8.90
2022-08-29T09:27:57.571Z,8.80
2022-08-29T09:28:57.570Z,8.90
2022-08-29T09:29:57.579Z,9.00
2022-08-29T09:30:57.573Z,9.10
2022-08-29T09:31:57.667Z,9.00
2022-08-29T09:32:57.579Z,9.20
2022-08-29T09:33:57.576Z,9.00
2022-08-29T09:35:08.320Z,9.10
2022-08-29T09:35:57.579Z,8.90
2022-08-29T09:36:57.583Z,9.00
2022-08-29T09:37:57.589Z,9.20
2022-08-29T09:38:57.609Z,9.40
2022-08-29T09:39:57.646Z,9.40
2022-08-29T09:40:57.598Z,9.20
2022-08-29T09:41:57.594Z,9.50
2022-08-29T09:42:57.598Z,9.60
2022-08-29T09:43:57.598Z,9.80
2022-08-29T09:44:57.598Z,9.80
2022-08-29T09:45:57.673Z,9.70
2022-08-29T09:46:57.610Z,9.60
2022-08-29T09:47:57.606Z,9.40
2022-08-29T09:48:57.606Z,9.60
2022-08-29T09:49:57.609Z,9.50
2022-08-29T09:50:57.614Z,9.70
2022-08-29T09:51:57.613Z,9.60
2022-08-29T09:52:57.613Z,9.50
2022-08-29T09:53:57.621Z,9.90
2022-08-29T09:54:57.622Z,9.60
2022-08-29T09:55:57.625Z,9.30
2022-08-29T09:56:57.626Z,9.90
2022-08-29T09:57:57.622Z,9.70
2022-08-29T09:58:57.627Z,9.70
2022-08-29T09:59:57.629Z,9.70
2022-08-29T10:00:57.727Z,9.40
2022-08-29T10:01:57.658Z,9.70
2022-08-29T10:02:57.635Z,9.90
2022-08-29T10:03:57.640Z,10.00
2022-08-29T10:04:57.645Z,9.60
2022-08-29T10:05:57.641Z,9.70
2022-08-29T10:06:57.646Z,9.80
2022-08-29T10:07:57.653Z,9.90
2022-08-29T10:08:57.648Z,9.90
2022-08-29T10:09:57.743Z,9.90
2022-08-29T10:10:57.661Z,10.20
2022-08-29T10:11:57.656Z,10.10
2022-08-29T10:12:57.656Z,10.00
2022-08-29T10:13:57.657Z,10.10
2022-08-29T10:14:57.665Z,10.40
2022-08-29T10:15:57.664Z,9.80
2022-08-29T10:16:57.739Z,9.80
2022-08-29T10:17:57.669Z,9.10
2022-08-29T10:18:57.672Z,9.40
2022-08-29T10:19:57.672Z,9.20
2022-08-29T10:20:57.677Z,9.60
2022-08-29T10:21:57.682Z,9.50
2022-08-29T10:22:57.686Z,9.90
2022-08-29T10:23:57.684Z,9.90
2022-08-29T10:24:57.691Z,9.80
2022-08-29T10:25:57.686Z,9.70
2022-08-29T10:26:57.694Z,9.50
2022-08-29T10:27:57.693Z,9.70
2022-08-29T10:28:57.696Z,9.70
2022-08-29T10:29:57.701Z,9.80
2022-08-29T10:30:57.703Z,9.60
2022-08-29T10:31:57.755Z,9.60
2022-08-29T10:32:57.710Z,9.50
2022-08-29T10:33:57.710Z,9.30
2022-08-29T10:34:57.714Z,9.20
2022-08-29T10:35:57.715Z,9.30
2022-08-29T10:36:57.717Z,9.50
2022-08-29T10:37:57.720Z,9.40
2022-08-29T10:38:57.729Z,9.20
2022-08-29T10:39:57.803Z,9.40
2022-08-29T10:40:57.726Z,9.60
2022-08-29T10:41:57.733Z,9.60
2022-08-29T10:42:57.736Z,9.50
2022-08-29T10:43:57.737Z,9.80
2022-08-29T10:44:57.736Z,9.60
2022-08-29T10:45:57.826Z,9.70
2022-08-29T10:46:57.744Z,9.70
2022-08-29T10:47:57.745Z,9.60
2022-08-29T10:48:57.754Z,9.80
2022-08-29T10:49:57.748Z,9.60
2022-08-29T10:50:57.757Z,9.70
2022-08-29T10:51:57.755Z,9.90
2022-08-29T10:52:57.757Z,9.70
2022-08-29T10:53:57.761Z,9.90
2022-08-29T10:54:57.767Z,9.60
2022-08-29T10:55:57.766Z,9.90
2022-08-29T10:56:57.768Z,8.70
2022-08-29T10:57:53.192Z,7.80
2022-08-29T10:58:53.194Z,8.30
2022-08-29T10:59:53.203Z,8.20
2022-08-29T11:00:53.298Z,8.20
2022-08-29T11:01:53.195Z,8.00
2022-08-29T11:02:53.201Z,8.20
2022-08-29T11:03:53.259Z,8.30
2022-08-29T11:04:53.204Z,7.70
2022-08-29T11:05:53.207Z,7.60
2022-08-29T11:06:53.224Z,7.80
2022-08-29T11:07:53.215Z,7.40
2022-08-29T11:08:53.217Z,7.50
2022-08-29T11:09:53.215Z,7.70
2022-08-29T11:10:53.219Z,7.60
2022-08-29T11:11:53.224Z,7.20
2022-08-29T11:12:53.228Z,7.50
2022-08-29T11:13:53.227Z,7.60
2022-08-29T11:14:53.233Z,7.50
2022-08-29T11:15:53.230Z,7.20
2022-08-29T11:16:53.318Z,6.80
2022-08-29T11:17:53.242Z,6.70
2022-08-29T11:18:53.239Z,7.00
2022-08-29T11:19:53.242Z,6.00
2022-08-29T11:20:53.262Z,6.10
2022-08-29T11:21:55.505Z,6.50
2022-08-29T11:22:53.254Z,6.20
2022-08-29T11:23:53.252Z,6.50
2022-08-29T11:24:53.263Z,6.30
2022-08-29T11:25:53.261Z,6.00
2022-08-29T11:26:53.268Z,6.10
2022-08-29T11:27:53.592Z,6.30
2022-08-29T11:28:53.276Z,6.30
2022-08-29T11:29:53.288Z,6.50
2022-08-29T11:30:53.290Z,7.10
2022-08-29T11:31:53.368Z,7.30
2022-08-29T11:32:53.310Z,7.30
2022-08-29T11:33:53.317Z,7.70
2022-08-29T11:34:53.318Z,7.40
2022-08-29T11:35:53.328Z,8.10
2022-08-29T11:36:53.335Z,7.90
2022-08-29T11:37:53.340Z,8.00
2022-08-29T11:38:53.346Z,7.90
2022-08-29T11:39:53.357Z,8.20
2022-08-29T11:41:58.162Z,7.70
2022-08-29T11:42:53.604Z,7.90
2022-08-29T11:43:53.389Z,8.10
2022-08-29T11:44:53.399Z,8.10
2022-08-29T11:45:53.406Z,7.50
2022-08-29T11:46:56.742Z,8.20
2022-08-29T11:47:53.424Z,7.70
2022-08-29T11:48:58.002Z,8.50
2022-08-29T11:49:53.434Z,9.30
2022-08-29T11:50:53.446Z,9.00
2022-08-29T11:51:53.454Z,9.00
2022-08-29T11:52:53.465Z,9.40
2022-08-29T11:53:53.469Z,9.70
2022-08-29T11:54:53.482Z,8.40
2022-08-29T11:55:53.492Z,8.70
2022-08-29T11:56:53.496Z,8.50
2022-08-29T11:57:53.511Z,8.50
2022-08-29T11:58:53.514Z,8.60
2022-08-29T11:59:53.524Z,8.70
2022-08-29T12:00:53.537Z,8.80
2022-08-29T12:01:53.563Z,8.80
2022-08-29T12:02:53.553Z,8.90
2022-08-29T12:03:53.564Z,8.30
2022-08-29T12:04:53.657Z,8.30
2022-08-29T12:05:53.585Z,8.40
2022-08-29T12:06:53.589Z,8.30
2022-08-29T12:07:53.604Z,7.90
2022-08-29T12:08:53.610Z,8.80
2022-08-29T12:09:53.621Z,8.80
2022-08-29T12:10:53.631Z,8.90
2022-08-29T12:11:53.636Z,9.00
2022-08-29T12:12:53.649Z,8.70
2022-08-29T12:13:53.680Z,8.40
2022-08-29T12:14:53.666Z,8.90
2022-08-29T12:15:53.699Z,8.70
2022-08-29T12:16:53.685Z,8.80
2022-08-29T12:18:02.834Z,9.20
2022-08-29T12:18:53.705Z,9.10
2022-08-29T12:19:53.736Z,9.60
2022-08-29T12:20:53.723Z,9.00
2022-08-29T12:21:53.728Z,9.20
2022-08-29T12:22:53.743Z,9.20
2022-08-29T12:23:53.760Z,9.30
2022-08-29T12:24:57.839Z,9.70
2022-08-29T12:26:53.774Z,9.20
2022-08-29T12:27:53.785Z,9.40
2022-08-29T12:28:53.795Z,9.50
2022-08-29T12:29:53.797Z,9.60
2022-08-29T12:30:53.826Z,9.60
2022-08-29T12:32:18.246Z,9.60
2022-08-29T12:32:53.874Z,9.60
2022-08-29T12:33:53.836Z,10.30
2022-08-29T12:34:53.841Z,10.10
2022-08-29T12:35:53.848Z,10.50
2022-08-29T12:36:53.857Z,10.70
2022-08-29T12:37:53.872Z,10.00
2022-08-29T12:38:53.871Z,10.10
2022-08-29T12:39:53.880Z,9.90
2022-08-29T12:40:53.893Z,10.10
2022-08-29T12:41:53.897Z,10.00
2022-08-29T12:42:53.903Z,10.30
2022-08-29T12:43:54.025Z,10.30
2022-08-29T12:45:53.924Z,10.30
2022-08-29T12:46:53.971Z,10.60
2022-08-29T12:47:53.939Z,10.40
2022-08-29T12:48:57.445Z,10.10
2022-08-29T12:49:53.951Z,10.10
2022-08-29T12:50:53.977Z,10.50
2022-08-29T12:51:53.964Z,10.70
2022-08-29T12:52:53.977Z,10.80
2022-08-29T12:53:53.978Z,10.60
2022-08-29T12:54:56.486Z,11.00
2022-08-29T12:55:53.991Z,11.00
2022-08-29T12:56:54.005Z,10.50
2022-08-29T12:57:54.008Z,10.70
2022-08-29T12:58:54.014Z,10.80
2022-08-29T12:59:54.019Z,10.90
2022-08-29T13:00:54.078Z,11.30
2022-08-29T13:01:55.972Z,11.30
2022-08-29T13:02:54.139Z,10.90
2022-08-29T13:03:54.137Z,10.40
2022-08-29T13:04:54.046Z,10.80
2022-08-29T13:05:54.060Z,10.50
2022-08-29T13:06:54.062Z,9.90
2022-08-29T13:07:54.064Z,10.60
2022-08-29T13:08:54.071Z,10.80
2022-08-29T13:09:54.079Z,10.00
2022-08-29T13:10:54.086Z,10.30
2022-08-29T13:11:54.088Z,10.10
2022-08-29T13:12:54.093Z,9.60
2022-08-29T13:13:54.098Z,10.50
2022-08-29T13:14:54.106Z,10.30
2022-08-29T13:15:54.159Z,10.50
2022-08-29T13:16:54.116Z,10.10
2022-08-29T13:17:54.120Z,10.10
2022-08-29T13:19:10.161Z,10.30
2022-08-29T13:19:54.130Z,9.80